Time;durP1;ratioP1;P1;durP2;ratioP2;P2;SDS_P1;SDS_P2;PMS_P1;PMS_P2;Temp;Humidity;BMP_temperature;BMP_pressure;BME280_temperature;BME280_humidity;BME280_pressure;Samples;Min_cycle;Max_cycle;Signal;HPM_P1;HPM_P2
2023/05/19 00:01:36;;;;;;;17.17;9.60;;;;;;;12.85;49.51;102538.50;5024130;28;20796;-67
2023/05/19 00:04:04;;;;;;;11.57;9.23;;;;;;;12.85;49.82;102535.72;5012846;28;20375;-67
2023/05/19 00:06:31;;;;;;;12.32;9.20;;;;;;;12.81;50.19;102534.47;5014166;28;20052;-67
2023/05/19 00:09:10;;;;;;;12.52;8.75;;;;;;;12.90;49.62;102530.31;5013859;28;20061;-67
2023/05/19 00:11:37;;;;;;;11.30;9.00;;;;;;;12.81;50.45;102531.66;5014355;28;20535;-66
2023/05/19 00:14:05;;;;;;;12.40;9.30;;;;;;;12.81;50.21;102529.78;5033317;28;20026;-67
2023/05/19 00:16:31;;;;;;;13.98;8.70;;;;;;;12.85;49.04;102527.34;5017842;28;20061;-67
2023/05/19 00:18:58;;;;;;;12.75;8.73;;;;;;;12.86;48.86;102521.56;5021232;28;20493;-67
2023/05/19 00:21:24;;;;;;;11.85;8.55;;;;;;;12.84;49.73;102529.28;5031811;28;20465;-67
2023/05/19 00:23:49;;;;;;;12.35;9.07;;;;;;;12.89;49.15;102523.91;5013088;28;20036;-67
2023/05/19 00:26:15;;;;;;;13.45;8.30;;;;;;;12.93;49.42;102515.91;5012231;28;20422;-68
2023/05/19 00:28:40;;;;;;;11.50;8.32;;;;;;;12.90;48.77;102519.19;5013321;28;20053;-67
2023/05/19 00:31:05;;;;;;;14.13;8.85;;;;;;;12.91;49.08;102515.31;5012377;28;20026;-67
2023/05/19 00:33:32;;;;;;;13.48;7.95;;;;;;;12.89;49.00;102507.19;5016165;28;20718;-67
2023/05/19 00:35:58;;;;;;;16.52;9.25;;;;;;;12.81;49.75;102510.25;5032536;28;20025;-67
2023/05/19 00:38:23;;;;;;;14.48;9.05;;;;;;;12.83;49.44;102507.22;5023775;28;20025;-67
2023/05/19 00:40:48;;;;;;;12.25;8.00;;;;;;;12.81;49.34;102506.59;5032620;28;20067;-67
2023/05/19 00:43:14;;;;;;;15.90;8.00;;;;;;;12.78;49.73;102505.13;5032849;28;20072;-67
2023/05/19 00:45:40;;;;;;;9.13;7.97;;;;;;;12.72;50.23;102501.31;5032207;28;20026;-67
2023/05/19 00:48:05;;;;;;;11.18;8.00;;;;;;;12.80;50.12;102502.09;5030700;28;21048;-67
2023/05/19 00:50:30;;;;;;;12.95;7.93;;;;;;;12.77;50.40;102501.50;5029973;28;20029;-67
2023/05/19 00:52:56;;;;;;;15.00;8.32;;;;;;;12.75;50.74;102495.28;5032039;28;20462;-67
2023/05/19 00:55:30;;;;;;;12.20;7.88;;;;;;;12.69;51.10;102501.78;5014314;28;20461;-67
2023/05/19 00:57:56;;;;;;;13.18;8.40;;;;;;;12.76;50.99;102498.94;5009493;28;20064;-67
2023/05/19 01:00:22;;;;;;;15.05;8.23;;;;;;;12.72;51.23;102509.66;5019283;28;20473;-67
2023/05/19 01:02:49;;;;;;;12.05;7.93;;;;;;;12.66;51.44;102505.03;5014356;28;21902;-67
2023/05/19 01:05:17;;;;;;;10.55;7.88;;;;;;;12.67;51.58;102503.94;5012530;28;20165;-67
2023/05/19 01:07:43;;;;;;;12.40;7.88;;;;;;;12.65;52.04;102505.22;5024312;28;20037;-67
2023/05/19 01:10:09;;;;;;;10.77;7.60;;;;;;;12.61;52.18;102503.97;5018152;28;20026;-67
2023/05/19 01:12:35;;;;;;;11.30;7.18;;;;;;;12.64;52.16;102501.59;5013278;28;20064;-67
2023/05/19 01:15:05;;;;;;;11.40;7.55;;;;;;;12.65;52.34;102506.06;5017250;28;20040;-67
2023/05/19 01:18:15;;;;;;;12.30;7.63;;;;;;;12.75;51.96;102509.22;5031888;28;20079;-67
2023/05/19 01:21:02;;;;;;;11.27;7.07;;;;;;;12.58;52.96;102505.31;4972316;28;20477;-67
2023/05/19 01:23:50;;;;;;;10.95;7.70;;;;;;;12.62;52.62;102500.97;5012067;28;20046;-67
2023/05/19 01:26:38;;;;;;;11.57;7.30;;;;;;;12.52;53.43;102504.25;5011982;28;20033;-67
2023/05/19 01:29:25;;;;;;;11.10;7.20;;;;;;;12.57;53.31;102500.78;5011374;28;20037;-67
2023/05/19 01:31:53;;;;;;;10.73;7.30;;;;;;;12.49;53.98;102504.69;5012329;28;20065;-67
2023/05/19 01:34:20;;;;;;;15.73;7.47;;;;;;;12.44;54.19;102504.53;5013014;28;20036;-67
2023/05/19 01:36:48;;;;;;;13.10;7.28;;;;;;;12.42;54.12;102501.13;5011344;28;20466;-67
2023/05/19 01:39:14;;;;;;;11.80;6.93;;;;;;;12.36;54.43;102502.03;5012251;28;20125;-67
2023/05/19 01:41:41;;;;;;;11.07;6.80;;;;;;;12.35;54.31;102494.75;5011238;28;20465;-67
2023/05/19 01:44:08;;;;;;;12.82;7.15;;;;;;;12.34;54.40;102501.41;5011189;28;20628;-67
2023/05/19 01:46:33;;;;;;;14.48;6.88;;;;;;;12.38;54.45;102499.00;5012134;28;20136;-67
2023/05/19 01:48:59;;;;;;;9.15;7.65;;;;;;;12.29;54.85;102492.84;5010089;28;20042;-67
2023/05/19 01:51:24;;;;;;;11.63;7.20;;;;;;;12.27;54.93;102492.25;5012224;28;20458;-67
2023/05/19 01:53:50;;;;;;;12.70;6.85;;;;;;;12.23;54.80;102491.84;5011515;28;20105;-67
2023/05/19 01:56:28;;;;;;;11.55;7.07;;;;;;;12.24;54.72;102481.56;5010528;28;20106;-67
2023/05/19 01:59:02;;;;;;;11.15;7.18;;;;;;;12.19;55.29;102482.22;5011825;28;20122;-67
2023/05/19 02:01:50;;;;;;;12.43;7.20;;;;;;;12.20;54.98;102478.34;5011141;28;20120;-65
2023/05/19 02:04:31;;;;;;;9.35;6.68;;;;;;;12.22;54.78;102479.00;5011699;28;20486;-65
2023/05/19 02:07:14;;;;;;;9.50;7.15;;;;;;;12.22;54.56;102475.34;5017424;28;20041;-66
2023/05/19 02:09:52;;;;;;;11.13;6.80;;;;;;;12.15;55.31;102485.69;5018036;28;20049;-66
2023/05/19 02:12:31;;;;;;;9.30;6.90;;;;;;;12.12;55.28;102481.41;5014700;28;20485;-66
2023/05/19 02:15:06;;;;;;;16.30;7.72;;;;;;;12.10;55.10;102479.91;5010608;28;20112;-66
2023/05/19 02:17:40;;;;;;;11.95;7.28;;;;;;;12.06;55.32;102476.72;5024197;28;20029;-66
2023/05/19 02:20:07;;;;;;;13.32;7.00;;;;;;;12.15;55.40;102478.19;5023106;28;20030;-66
2023/05/19 02:22:32;;;;;;;14.75;7.32;;;;;;;12.03;55.71;102480.84;5021766;28;20060;-66
2023/05/19 02:24:58;;;;;;;14.77;6.80;;;;;;;12.00;55.78;102477.63;5027035;28;20473;-66
2023/05/19 02:27:23;;;;;;;18.90;7.43;;;;;;;12.04;55.48;102476.97;5010935;28;20120;-66
2023/05/19 02:29:48;;;;;;;11.98;7.60;;;;;;;12.01;55.75;102473.78;5027566;28;20025;-66
2023/05/19 02:32:14;;;;;;;11.48;6.88;;;;;;;12.05;55.71;102477.81;5022226;28;20030;-66
2023/05/19 02:34:41;;;;;;;12.35;7.38;;;;;;;11.96;55.88;102477.22;5010693;28;20061;-66
2023/05/19 02:37:06;;;;;;;12.90;7.55;;;;;;;11.89;55.69;102473.63;5018355;28;20073;-65
2023/05/19 02:39:33;;;;;;;10.30;7.18;;;;;;;11.89;55.88;102476.41;5016996;28;20478;-66
2023/05/19 02:41:59;;;;;;;10.82;7.25;;;;;;;11.85;56.22;102460.38;5010114;28;20029;-66
2023/05/19 02:44:24;;;;;;;9.25;7.38;;;;;;;11.85;56.13;102469.59;5020058;28;20104;-66
2023/05/19 02:46:50;;;;;;;12.27;7.35;;;;;;;11.83;56.30;102460.63;5024733;28;20033;-65
2023/05/19 02:49:15;;;;;;;12.05;7.32;;;;;;;11.76;56.30;102465.31;5022599;28;20473;-66
2023/05/19 02:51:40;;;;;;;13.20;7.00;;;;;;;11.83;56.10;102463.41;5013023;28;20036;-65
2023/05/19 02:54:05;;;;;;;10.93;7.72;;;;;;;11.80;56.51;102466.59;5027646;28;20045;-66
2023/05/19 02:56:31;;;;;;;12.13;7.90;;;;;;;11.79;56.44;102456.53;5016304;28;20137;-66
2023/05/19 02:58:57;;;;;;;11.90;7.43;;;;;;;11.77;56.37;102458.69;5019590;28;20025;-66
2023/05/19 03:01:22;;;;;;;10.70;7.15;;;;;;;11.78;56.45;102455.66;5024498;28;20026;-66
2023/05/19 03:03:47;;;;;;;10.88;7.22;;;;;;;11.74;56.56;102448.84;5009926;28;20026;-66
2023/05/19 03:06:14;;;;;;;12.15;7.95;;;;;;;11.69;56.80;102456.16;5022053;28;20385;-66
2023/05/19 03:08:39;;;;;;;12.90;8.10;;;;;;;11.68;57.08;102457.25;5012758;28;20034;-66
2023/05/19 03:11:05;;;;;;;11.10;7.90;;;;;;;11.74;56.63;102459.13;5013423;28;20382;-65
2023/05/19 03:13:30;;;;;;;14.98;8.23;;;;;;;11.64;56.83;102454.03;5011890;28;20030;-66
2023/05/19 03:15:57;;;;;;;16.75;8.55;;;;;;;11.59;57.19;102455.75;5028406;28;20078;-66
2023/05/19 03:18:23;;;;;;;11.70;7.93;;;;;;;11.55;57.24;102459.00;5034103;28;20056;-65
2023/05/19 03:20:49;;;;;;;13.32;8.00;;;;;;;11.48;57.46;102460.97;5032068;28;20493;-66
2023/05/19 03:23:15;;;;;;;10.98;7.47;;;;;;;11.48;57.18;102465.66;5032952;28;20115;-66
2023/05/19 03:25:40;;;;;;;13.73;7.90;;;;;;;11.50;57.40;102461.56;5018407;28;20053;-66
2023/05/19 03:28:05;;;;;;;14.23;8.05;;;;;;;11.44;57.59;102465.25;5017858;28;20040;-66
2023/05/19 03:30:30;;;;;;;13.48;8.48;;;;;;;11.41;57.86;102475.97;5027971;28;20397;-66
2023/05/19 03:32:56;;;;;;;12.88;7.50;;;;;;;11.38;57.84;102471.69;5026928;28;20041;-66
2023/05/19 03:35:21;;;;;;;11.93;7.93;;;;;;;11.40;57.88;102479.81;5017833;28;20038;-65
2023/05/19 03:37:46;;;;;;;9.77;8.00;;;;;;;11.40;57.80;102475.09;5029224;28;20037;-66
2023/05/19 03:40:12;;;;;;;9.98;8.35;;;;;;;11.29;58.12;102478.56;5017078;28;20034;-65
2023/05/19 03:42:37;;;;;;;10.38;7.80;;;;;;;11.32;58.10;102480.91;5014234;28;20103;-66
2023/05/19 03:45:03;;;;;;;11.32;7.88;;;;;;;11.28;58.29;102479.63;5014862;28;20017;-65
2023/05/19 03:47:30;;;;;;;12.32;7.57;;;;;;;11.25;58.48;102477.28;5011667;28;20410;-66
2023/05/19 03:49:55;;;;;;;12.23;7.63;;;;;;;11.17;58.68;102480.31;5032312;28;20406;-66
2023/05/19 03:52:21;;;;;;;13.02;8.05;;;;;;;11.22;58.52;102486.06;5016512;28;20107;-65
2023/05/19 03:54:46;;;;;;;12.82;8.10;;;;;;;11.25;58.73;102485.63;5018475;28;20465;-66
2023/05/19 03:57:13;;;;;;;15.13;8.55;;;;;;;11.15;58.96;102486.06;5012311;28;20030;-65
2023/05/19 03:59:40;;;;;;;11.43;7.82;;;;;;;11.15;59.01;102476.88;5020075;28;20068;-65
2023/05/19 04:02:05;;;;;;;12.20;8.48;;;;;;;11.15;59.00;102474.94;5019544;28;20038;-66
2023/05/19 04:04:31;;;;;;;14.25;8.50;;;;;;;11.19;58.74;102479.00;5014751;28;20045;-66
2023/05/19 04:06:56;;;;;;;12.05;9.00;;;;;;;11.18;58.84;102466.19;5032347;28;20041;-66
2023/05/19 04:09:22;;;;;;;15.90;8.88;;;;;;;11.20;59.26;102475.16;5032609;28;20819;-65
2023/05/19 04:11:48;;;;;;;12.30;8.57;;;;;;;11.19;59.01;102476.22;5013215;28;20061;-65
2023/05/19 04:14:13;;;;;;;14.02;9.05;;;;;;;11.15;59.24;102482.44;5012914;28;20057;-65
2023/05/19 04:16:40;;;;;;;21.55;9.57;;;;;;;11.16;59.26;102475.78;5019250;28;20048;-65
2023/05/19 04:19:05;;;;;;;14.30;8.23;;;;;;;11.21;59.13;102476.03;5030504;28;20036;-66
2023/05/19 04:21:31;;;;;;;15.68;8.43;;;;;;;11.18;59.48;102476.44;5015604;28;20033;-65
2023/05/19 04:23:58;;;;;;;13.82;8.57;;;;;;;11.28;59.01;102477.72;5012286;28;20034;-65
2023/05/19 04:26:25;;;;;;;15.02;8.85;;;;;;;11.26;59.15;102474.28;5012354;28;20033;-65
2023/05/19 04:28:51;;;;;;;13.32;8.57;;;;;;;11.34;59.12;102475.13;5013211;28;20022;-65
2023/05/19 04:31:16;;;;;;;12.48;8.05;;;;;;;11.39;59.11;102476.16;5011378;28;20087;-66
2023/05/19 04:33:42;;;;;;;12.48;8.23;;;;;;;11.44;59.10;102479.16;5025639;28;20104;-66
2023/05/19 04:36:09;;;;;;;15.18;8.88;;;;;;;11.43;58.87;102479.34;5032771;28;20025;-65
2023/05/19 04:38:38;;;;;;;12.18;7.93;;;;;;;11.46;58.91;102479.78;5019051;28;20038;-66
2023/05/19 04:41:09;;;;;;;12.00;8.50;;;;;;;11.46;58.96;102479.78;5027776;28;20572;-66
2023/05/19 04:43:35;;;;;;;12.95;8.90;;;;;;;11.41;59.26;102476.81;5029740;28;20045;-66
2023/05/19 04:46:01;;;;;;;11.77;8.52;;;;;;;11.41;59.19;102476.81;5026106;28;20022;-66
2023/05/19 04:48:29;;;;;;;15.30;9.45;;;;;;;11.43;59.31;102480.22;5011990;28;20050;-65
2023/05/19 04:50:55;;;;;;;15.00;9.45;;;;;;;11.31;59.79;102480.03;5015303;28;20025;-65
2023/05/19 04:53:20;;;;;;;11.57;8.43;;;;;;;11.37;59.81;102481.09;5012658;28;20022;-65
2023/05/19 04:55:46;;;;;;;14.73;9.90;;;;;;;11.38;59.88;102482.81;5023136;28;20434;-65
2023/05/19 04:58:11;;;;;;;17.35;9.32;;;;;;;11.35;59.97;102480.44;5024144;28;20033;-66
2023/05/19 05:00:36;;;;;;;12.88;9.20;;;;;;;11.37;59.74;102478.31;5024518;28;20068;-66
2023/05/19 05:03:06;;;;;;;14.80;8.77;;;;;;;11.40;59.86;102485.38;5012902;28;20029;-65
2023/05/19 05:05:31;;;;;;;15.00;9.02;;;;;;;11.37;59.90;102481.09;5012012;28;20481;-65
2023/05/19 05:07:57;;;;;;;15.02;9.70;;;;;;;11.34;60.13;102481.53;5021790;28;20041;-65
2023/05/19 05:10:23;;;;;;;13.65;9.38;;;;;;;11.36;60.24;102481.31;5018729;28;20040;-65
2023/05/19 05:12:48;;;;;;;14.60;9.38;;;;;;;11.35;60.29;102488.78;5027226;28;20104;-66
2023/05/19 05:15:14;;;;;;;15.60;9.70;;;;;;;11.39;60.25;102483.66;5024872;28;20041;-65
2023/05/19 05:17:40;;;;;;;13.13;9.63;;;;;;;11.41;60.40;102485.16;5011957;28;20049;-65
2023/05/19 05:20:06;;;;;;;17.70;10.95;;;;;;;11.44;60.17;102487.50;5010884;28;20021;-65
2023/05/19 05:22:32;;;;;;;15.35;10.68;;;;;;;11.49;60.26;102486.84;5024636;28;20370;-65
2023/05/19 05:24:57;;;;;;;13.45;9.70;;;;;;;11.47;60.27;102487.03;5014513;28;20017;-66
2023/05/19 05:27:23;;;;;;;19.38;10.75;;;;;;;11.55;60.40;102495.16;5025819;28;20042;-66
2023/05/19 05:29:48;;;;;;;15.52;9.85;;;;;;;11.63;59.99;102491.28;5011271;28;20072;-66
2023/05/19 05:32:15;;;;;;;14.23;10.52;;;;;;;11.62;60.02;102497.91;5017306;28;20029;-65
2023/05/19 05:34:41;;;;;;;17.52;9.80;;;;;;;11.66;60.11;102495.53;5011422;28;20025;-66
2023/05/19 05:37:06;;;;;;;12.43;10.07;;;;;;;11.68;60.05;102491.47;5016336;28;20084;-65
2023/05/19 05:39:31;;;;;;;14.88;10.60;;;;;;;11.74;59.89;102489.72;5019324;28;20474;-66
2023/05/19 05:41:57;;;;;;;16.83;11.13;;;;;;;11.72;60.03;102495.50;5019037;28;20025;-65
2023/05/19 05:44:22;;;;;;;15.43;10.20;;;;;;;11.76;59.78;102490.38;5013060;28;20046;-66
2023/05/19 05:46:47;;;;;;;12.57;10.32;;;;;;;11.78;59.82;102486.25;5015533;28;20030;-66
2023/05/19 05:49:13;;;;;;;15.77;10.20;;;;;;;11.79;59.95;102493.56;5021118;28;20030;-65
2023/05/19 05:51:39;;;;;;;16.52;11.40;;;;;;;11.82;59.64;102489.47;5014513;28;20076;-66
2023/05/19 05:54:05;;;;;;;15.82;10.85;;;;;;;11.85;59.65;102491.84;5012988;28;20033;-65
2023/05/19 05:56:32;;;;;;;13.75;10.63;;;;;;;11.92;59.55;102495.44;5013560;28;20033;-65
2023/05/19 05:58:58;;;;;;;14.20;10.52;;;;;;;11.91;59.32;102485.41;5024132;28;20514;-65
2023/05/19 06:01:23;;;;;;;17.88;10.85;;;;;;;11.97;59.91;102487.28;5016447;28;20030;-64
2023/05/19 06:03:48;;;;;;;13.93;10.20;;;;;;;12.11;59.16;102492.78;5025545;28;20396;-65
2023/05/19 06:06:14;;;;;;;18.08;11.00;;;;;;;12.17;59.23;102491.88;5027421;28;20124;-64
2023/05/19 06:08:39;;;;;;;13.60;10.13;;;;;;;12.23;58.30;102496.56;5010701;28;20030;-66
2023/05/19 06:11:08;;;;;;;16.90;9.90;;;;;;;12.23;58.98;102499.34;5007760;28;20082;-66
2023/05/19 06:13:34;;;;;;;12.98;9.43;;;;;;;12.17;58.84;102498.28;5015240;28;20037;-65
2023/05/19 06:16:00;;;;;;;14.20;9.95;;;;;;;12.18;58.77;102496.34;5020085;28;20041;-66
2023/05/19 06:18:25;;;;;;;14.20;9.82;;;;;;;12.21;58.98;102505.13;5028234;28;20060;-66
2023/05/19 06:20:50;;;;;;;16.80;9.75;;;;;;;12.25;58.87;102505.53;5010874;28;20650;-66
2023/05/19 06:23:16;;;;;;;14.32;10.50;;;;;;;12.31;58.79;102503.78;5009584;28;20068;-66
2023/05/19 06:25:41;;;;;;;16.13;9.52;;;;;;;12.36;58.49;102502.03;5021104;28;20462;-66
2023/05/19 06:28:06;;;;;;;15.13;9.55;;;;;;;12.40;58.49;102496.84;5024187;28;20072;-68
2023/05/19 06:30:31;;;;;;;15.35;9.88;;;;;;;12.45;58.10;102494.25;5010704;28;20046;-67
2023/05/19 06:32:57;;;;;;;16.10;9.55;;;;;;;12.45;58.20;102506.22;5009003;28;20033;-65
2023/05/19 06:35:22;;;;;;;13.18;9.82;;;;;;;12.51;58.11;102504.50;5012019;28;20028;-65
2023/05/19 06:37:47;;;;;;;12.23;9.52;;;;;;;12.53;58.25;102511.53;5013856;28;20026;-65
2023/05/19 06:40:13;;;;;;;17.33;10.15;;;;;;;12.60;58.12;102511.47;5018921;28;20033;-65
2023/05/19 06:42:38;;;;;;;14.05;9.88;;;;;;;12.63;57.72;102508.25;5018059;28;20049;-66
2023/05/19 06:45:04;;;;;;;16.70;9.73;;;;;;;12.69;57.64;102506.47;5019213;28;20499;-66
2023/05/19 06:47:29;;;;;;;15.93;10.18;;;;;;;12.74;58.10;102498.31;5010417;28;20049;-66
2023/05/19 06:49:55;;;;;;;14.45;7.88;;;;;;;12.96;60.13;102502.38;5018475;28;20093;-66
2023/05/19 06:52:21;;;;;;;14.35;8.27;;;;;;;13.25;59.00;102500.00;5016102;28;20668;-67
2023/05/19 06:54:47;;;;;;;17.88;10.48;;;;;;;13.25;56.90;102502.78;5019474;28;20121;-65
2023/05/19 06:57:13;;;;;;;14.57;9.18;;;;;;;13.32;56.62;102502.69;5010238;28;20030;-61
2023/05/19 06:59:40;;;;;;;15.93;9.68;;;;;;;13.33;56.46;102496.06;5014761;28;20048;-65
2023/05/19 07:02:06;;;;;;;16.30;9.45;;;;;;;13.34;56.76;102498.59;5019534;28;20037;-66
2023/05/19 07:04:31;;;;;;;16.85;9.48;;;;;;;13.42;56.13;102495.50;5013107;28;20112;-66
2023/05/19 07:06:57;;;;;;;13.50;8.82;;;;;;;13.47;56.33;102508.75;5007065;28;20566;-66
2023/05/19 07:09:23;;;;;;;13.25;8.98;;;;;;;13.51;56.04;102504.41;5013917;28;20033;-66
2023/05/19 07:11:48;;;;;;;14.32;9.02;;;;;;;13.57;56.03;102503.50;5011794;28;20087;-66
2023/05/19 07:14:13;;;;;;;16.45;9.02;;;;;;;13.69;55.64;102503.56;5019707;28;20366;-65
2023/05/19 07:16:38;;;;;;;15.45;9.90;;;;;;;13.73;55.48;102502.00;5017757;28;20061;-66
2023/05/19 07:19:04;;;;;;;12.70;9.25;;;;;;;13.79;55.77;102494.63;5019598;28;20034;-66
2023/05/19 07:21:29;;;;;;;14.13;9.25;;;;;;;13.88;55.54;102494.06;5013505;28;20033;-65
2023/05/19 07:23:54;;;;;;;15.18;8.95;;;;;;;13.97;54.96;102501.03;5009812;28;20113;-65
2023/05/19 07:26:21;;;;;;;12.88;9.00;;;;;;;14.00;54.64;102489.41;5009639;28;20152;-67
2023/05/19 07:28:46;;;;;;;14.80;9.23;;;;;;;14.07;55.15;102494.91;5018311;28;20083;-66
2023/05/19 07:31:12;;;;;;;13.55;9.35;;;;;;;14.20;55.92;102491.06;5010088;28;20030;-67
2023/05/19 07:33:37;;;;;;;15.60;9.38;;;;;;;14.27;53.81;102496.56;5014461;28;20409;-66
2023/05/19 07:36:03;;;;;;;14.55;8.40;;;;;;;14.33;53.67;102490.84;5011072;28;20049;-65
2023/05/19 07:38:30;;;;;;;14.85;8.75;;;;;;;14.38;53.29;102496.59;5028237;28;20040;-66
2023/05/19 07:40:55;;;;;;;12.10;8.18;;;;;;;14.44;53.37;102494.75;5008724;28;20026;-65
2023/05/19 07:43:20;;;;;;;12.65;8.10;;;;;;;14.49;53.56;102495.78;5022604;28;20331;-64
2023/05/19 07:45:46;;;;;;;12.63;8.85;;;;;;;14.55;53.41;102493.97;5011672;28;20053;-63
2023/05/19 07:48:11;;;;;;;16.13;9.13;;;;;;;14.63;53.19;102489.97;5013992;28;20061;-64
2023/05/19 07:50:38;;;;;;;14.68;8.73;;;;;;;14.68;53.11;102488.16;5013327;28;20083;-64
2023/05/19 07:53:03;;;;;;;18.08;9.27;;;;;;;14.73;52.91;102484.63;5025311;28;20134;-64
2023/05/19 07:55:28;;;;;;;14.63;9.05;;;;;;;14.76;52.93;102481.38;5011807;28;20441;-66
2023/05/19 07:57:55;;;;;;;15.55;8.55;;;;;;;14.84;52.79;102485.75;5011307;28;20037;-65
2023/05/19 08:00:20;;;;;;;13.05;8.02;;;;;;;14.94;53.20;102486.84;5021474;28;20030;-65
2023/05/19 08:02:46;;;;;;;13.02;8.15;;;;;;;15.05;52.51;102484.28;5023575;28;20026;-65
2023/05/19 08:05:11;;;;;;;20.15;9.48;;;;;;;15.27;57.45;102479.78;5022140;28;20037;-62
2023/05/19 08:07:36;;;;;;;9.98;6.63;;;;;;;15.40;56.13;102475.84;5010479;28;20033;-62
2023/05/19 08:10:03;;;;;;;14.25;7.75;;;;;;;15.46;53.72;102480.47;5012925;28;20014;-62
2023/05/19 08:12:28;;;;;;;13.13;6.90;;;;;;;15.47;50.67;102480.22;5014614;28;20029;-62
2023/05/19 08:14:53;;;;;;;12.48;6.85;;;;;;;15.56;50.44;102475.13;5011059;28;20827;-62
2023/05/19 08:17:18;;;;;;;9.88;6.03;;;;;;;15.64;49.72;102474.72;5018833;28;20154;-64
2023/05/19 08:19:44;;;;;;;12.65;6.68;;;;;;;15.76;50.73;102471.06;5019509;28;20030;-63
2023/05/19 08:22:10;;;;;;;12.50;6.97;;;;;;;15.78;50.48;102461.31;5024856;28;20479;-64
2023/05/19 08:24:35;;;;;;;9.05;6.85;;;;;;;15.81;50.50;102458.03;5014554;28;20298;-63
2023/05/19 08:27:01;;;;;;;8.57;5.38;;;;;;;15.98;51.94;102458.06;5016082;28;20032;-62
2023/05/19 08:29:26;;;;;;;15.70;7.20;;;;;;;16.06;50.97;102460.47;5012963;28;20041;-64
2023/05/19 08:31:52;;;;;;;13.50;5.78;;;;;;;16.30;51.31;102466.78;5012914;28;20120;-63
2023/05/19 08:34:18;;;;;;;13.15;5.68;;;;;;;16.38;50.67;102460.75;5018067;28;20031;-63
2023/05/19 08:36:44;;;;;;;9.30;5.03;;;;;;;16.47;50.75;102446.38;5016029;28;20141;-63
2023/05/19 08:39:10;;;;;;;12.80;6.53;;;;;;;16.41;48.53;102453.81;5017231;28;20100;-62
2023/05/19 08:41:35;;;;;;;12.80;6.80;;;;;;;16.43;49.56;102454.44;5022955;28;20116;-62
2023/05/19 08:44:00;;;;;;;12.55;5.25;;;;;;;16.63;50.44;102448.31;5029760;28;20029;-63
2023/05/19 08:46:27;;;;;;;12.60;5.82;;;;;;;16.75;50.17;102442.66;5027063;28;20041;-63
2023/05/19 08:49:00;;;;;;;11.73;6.00;;;;;;;16.73;47.60;102448.50;5012745;28;20063;-64
2023/05/19 08:51:44;;;;;;;12.07;4.82;;;;;;;16.98;49.75;102436.84;5010241;28;20033;-63
2023/05/19 08:54:16;;;;;;;11.45;6.30;;;;;;;16.93;47.30;102437.59;5015249;28;20033;-63
2023/05/19 08:56:43;;;;;;;10.05;5.18;;;;;;;16.97;46.67;102432.31;5018973;28;20038;-65
2023/05/19 08:59:10;;;;;;;12.40;4.82;;;;;;;17.02;45.58;102445.59;5014134;28;20030;-62
2023/05/19 09:01:36;;;;;;;9.45;4.68;;;;;;;17.11;45.79;102432.81;5015265;28;20285;-64
2023/05/19 09:04:02;;;;;;;11.13;4.18;;;;;;;17.24;46.83;102426.81;5011692;28;20489;-63
2023/05/19 09:06:32;;;;;;;9.55;3.90;;;;;;;17.29;46.59;102429.72;5013174;28;20029;-64
2023/05/19 09:08:57;;;;;;;7.65;4.13;;;;;;;17.38;45.62;102419.72;5019067;28;20048;-64
2023/05/19 09:11:22;;;;;;;6.95;4.38;;;;;;;17.37;43.39;102429.25;5010004;28;20030;-64
2023/05/19 09:13:48;;;;;;;8.85;3.63;;;;;;;17.45;43.64;102415.84;5011983;28;20041;-64
2023/05/19 09:16:14;;;;;;;12.00;4.53;;;;;;;17.47;43.60;102419.25;5016628;28;20069;-64
2023/05/19 09:18:52;;;;;;;8.98;3.63;;;;;;;17.43;43.18;102419.78;5013881;28;20370;-65
2023/05/19 09:21:17;;;;;;;10.73;3.50;;;;;;;17.48;41.51;102421.78;5013915;28;20046;-65
2023/05/19 09:23:46;;;;;;;9.77;3.38;;;;;;;17.47;41.77;102414.50;5014598;28;20474;-64
2023/05/19 09:26:14;;;;;;;17.73;3.60;;;;;;;17.49;40.55;102411.41;5010407;28;20053;-63
2023/05/19 09:28:39;;;;;;;8.38;2.85;;;;;;;17.50;40.89;102411.16;5014283;28;20045;-63
2023/05/19 09:31:07;;;;;;;6.88;2.67;;;;;;;17.51;40.60;102412.84;5017642;28;20037;-63
2023/05/19 09:33:34;;;;;;;8.50;2.97;;;;;;;17.55;40.31;102407.56;5014882;28;20033;-64
2023/05/19 09:36:00;;;;;;;6.82;2.95;;;;;;;17.54;39.87;102408.69;5016280;28;20033;-63
2023/05/19 09:38:26;;;;;;;9.77;2.70;;;;;;;17.44;39.37;102392.56;5024723;28;20180;-63
2023/05/19 09:40:55;;;;;;;9.35;2.67;;;;;;;17.53;40.04;102401.38;5015913;28;20037;-64
2023/05/19 09:43:20;;;;;;;9.38;2.90;;;;;;;17.50;38.88;102401.91;5031124;28;20045;-64
2023/05/19 09:45:46;;;;;;;5.85;2.53;;;;;;;17.54;39.38;102403.06;5027398;28;20578;-64
2023/05/19 09:48:13;;;;;;;6.70;2.63;;;;;;;17.64;40.34;102394.75;5018828;28;20034;-65
2023/05/19 09:50:39;;;;;;;8.27;2.50;;;;;;;17.65;39.93;102397.31;5006147;28;20642;-63
2023/05/19 09:53:04;;;;;;;7.00;2.50;;;;;;;17.65;40.86;102404.91;5016094;28;20036;-64
2023/05/19 09:55:31;;;;;;;9.00;2.67;;;;;;;17.77;41.50;102397.19;5014795;28;20033;-64
2023/05/19 09:57:56;;;;;;;8.73;2.70;;;;;;;17.65;39.44;102396.47;5021380;28;20037;-63
2023/05/19 10:00:22;;;;;;;11.05;2.53;;;;;;;17.70;39.93;102401.28;5020614;28;20033;-63
2023/05/19 10:02:49;;;;;;;7.82;2.50;;;;;;;17.74;40.13;102397.69;5013955;28;20053;-63
2023/05/19 10:05:19;;;;;;;5.10;2.33;;;;;;;17.74;38.43;102392.06;5014459;28;20082;-63
2023/05/19 10:07:47;;;;;;;7.70;2.50;;;;;;;17.74;38.60;102389.25;5020538;28;20095;-64
2023/05/19 10:10:13;;;;;;;4.65;2.70;;;;;;;17.80;39.72;102393.00;5017485;28;20038;-63
2023/05/19 10:12:40;;;;;;;8.85;2.97;;;;;;;17.86;39.13;102398.41;5014545;28;20115;-62
2023/05/19 10:15:10;;;;;;;7.43;2.60;;;;;;;17.93;39.78;102391.75;5017083;28;20104;-63
2023/05/19 10:17:38;;;;;;;8.18;2.47;;;;;;;17.96;37.36;102391.19;5011425;28;20481;-60
2023/05/19 10:20:06;;;;;;;6.15;2.33;;;;;;;18.03;39.20;102391.81;5022841;28;20160;-64
2023/05/19 10:22:32;;;;;;;7.15;2.50;;;;;;;18.02;36.25;102390.97;5017197;28;20049;-65
2023/05/19 10:24:57;;;;;;;6.72;2.42;;;;;;;18.06;37.64;102394.97;5013923;28;20041;-64
2023/05/19 10:27:26;;;;;;;8.20;2.15;;;;;;;18.12;37.11;102398.69;5012633;28;20132;-62
2023/05/19 10:29:56;;;;;;;8.43;2.40;;;;;;;18.19;37.91;102390.84;5018381;28;20111;-61
2023/05/19 10:32:29;;;;;;;11.52;3.22;;;;;;;18.25;37.61;102389.81;5023036;28;20033;-64
2023/05/19 10:35:31;;;;;;;9.57;3.05;;;;;;;18.28;38.42;102385.63;5021942;28;20025;-60
2023/05/19 10:38:12;;;;;;;;;;;;;;;18.35;39.62;102375.84;5007624;28;20844;-62
2023/05/19 10:40:56;;;;;;;12.23;3.13;;;;;;;18.39;38.30;102377.00;5012074;28;19992;-60
2023/05/19 10:43:52;;;;;;;9.20;2.97;;;;;;;18.44;38.80;102369.72;5010222;28;20385;-64
2023/05/19 10:46:21;;;;;;;7.15;2.60;;;;;;;18.52;37.91;102374.84;5011364;28;20124;-66
2023/05/19 10:48:47;;;;;;;8.52;2.92;;;;;;;18.57;39.40;102366.44;5016921;28;20668;-64
2023/05/19 10:51:14;;;;;;;7.35;2.80;;;;;;;18.61;39.15;102361.97;5014059;28;20038;-65
2023/05/19 10:53:44;;;;;;;10.32;3.13;;;;;;;18.65;37.55;102363.13;5010375;28;20498;-64
2023/05/19 10:56:11;;;;;;;7.97;2.58;;;;;;;18.81;39.36;102364.94;5016529;28;20053;-65
2023/05/19 10:58:48;;;;;;;8.68;3.08;;;;;;;18.82;38.74;102372.28;5010695;28;20410;-65
2023/05/19 11:01:19;;;;;;;8.88;3.05;;;;;;;18.82;37.54;102368.59;5010088;28;20769;-64
2023/05/19 11:03:49;;;;;;;8.48;2.80;;;;;;;18.91;39.22;102363.31;5016786;28;20032;-65
2023/05/19 11:06:30;;;;;;;8.15;3.15;;;;;;;18.94;39.83;102357.13;5017437;28;20143;-66
2023/05/19 11:09:01;;;;;;;13.63;3.10;;;;;;;18.89;37.27;102361.59;5012390;28;20042;-65
2023/05/19 11:11:46;;;;;;;7.85;2.90;;;;;;;18.87;37.84;102363.03;5009365;28;20033;-61
2023/05/19 11:14:13;;;;;;;4.97;2.70;;;;;;;18.83;36.81;102364.69;5017211;28;20029;-60
2023/05/19 11:16:40;;;;;;;5.63;2.50;;;;;;;18.84;36.81;102353.16;5015880;28;20034;-64
2023/05/19 11:19:06;;;;;;;7.85;2.55;;;;;;;18.89;35.86;102353.16;5015383;28;20547;-62
2023/05/19 11:21:41;;;;;;;4.22;2.03;;;;;;;18.93;35.82;102363.88;5011986;28;20034;-61